Time,TemperatureF,DewpointF,PressureIn,WindDirection,WindDirectionDegrees,WindSpeedMPH,WindSpeedGustMPH,Humidity,HourlyPrecipIn,Conditions,Clouds,dailyrainin,SoftwareType,DateUTC
2013-01-01 00:04:00,26.1,22.1,30.11,NNW,330,6.0,10.0,85,0.00,,,0.04,meteohub,2013-01-01 06:04:00,
2013-01-01 00:09:00,25.9,22.3,30.11,NW,321,6.0,10.0,86,0.00,,,0.00,meteohub,2013-01-01 06:09:00,
2013-01-01 00:15:00,25.9,22.3,30.11,NNW,348,8.0,10.0,86,0.00,,,0.00,meteohub,2013-01-01 06:15:00,
2013-01-01 00:20:00,25.9,22.5,30.11,NNW,331,1.0,10.0,87,0.00,,,0.00,meteohub,2013-01-01 06:20:00,
2013-01-01 00:25:00,25.9,22.5,30.11,North,350,4.0,8.0,87,0.00,,,0.00,meteohub,2013-01-01 06:25:00,
2013-01-01 00:30:00,25.5,21.9,30.10,NNW,329,6.0,11.0,86,0.00,,,0.00,meteohub,2013-01-01 06:30:00,
2013-01-01 00:35:00,25.3,21.7,30.10,NNW,328,6.0,11.0,86,0.00,,,0.00,meteohub,2013-01-01 06:35:00,
2013-01-01 00:40:00,25.2,21.9,30.11,NW,311,6.0,11.0,87,0.00,,,0.00,meteohub,2013-01-01 06:40:00,
2013-01-01 00:45:00,25.2,21.9,30.12,NW,308,7.0,10.0,87,0.00,,,0.00,meteohub,2013-01-01 06:45:00,
2013-01-01 00:50:00,25.2,21.9,30.11,WNW,296,5.0,10.0,87,0.00,,,0.00,meteohub,2013-01-01 06:50:00,
2013-01-01 00:55:00,25.0,21.7,30.12,NW,317,7.0,10.0,87,0.00,,,0.00,meteohub,2013-01-01 06:55:00,
2013-01-01 01:00:00,25.0,21.7,30.11,NW,325,10.0,10.0,87,0.00,,,0.00,meteohub,2013-01-01 07:00:00,
2013-01-01 01:06:00,24.8,21.6,30.11,NW,312,9.0,10.0,87,0.00,,,0.00,meteohub,2013-01-01 07:06:00,
2013-01-01 01:11:00,24.8,21.6,30.11,NNW,332,4.0,10.0,87,0.00,,,0.00,meteohub,2013-01-01 07:11:00,
2013-01-01 01:16:00,24.8,21.7,30.11,NW,316,3.0,10.0,88,0.00,,,0.00,meteohub,2013-01-01 07:16:00,
2013-01-01 01:21:00,24.6,21.4,30.12,NW,325,8.0,11.0,87,0.00,,,0.00,meteohub,2013-01-01 07:21:00,
2013-01-01 01:26:00,24.6,21.4,30.12,WNW,293,5.0,11.0,87,0.00,,,0.00,meteohub,2013-01-01 07:26:00,
2013-01-01 01:31:00,24.6,21.6,30.12,NW,317,3.0,11.0,88,0.00,,,0.00,meteohub,2013-01-01 07:31:00,
2013-01-01 01:36:00,24.4,21.4,30.12,NW,316,8.0,10.0,88,0.00,,,0.00,meteohub,2013-01-01 07:36:00,
2013-01-01 01:41:00,24.4,21.2,30.11,North,355,7.0,10.0,87,0.00,,,0.00,meteohub,2013-01-01 07:41:00,
2013-01-01 01:46:00,24.3,21.2,30.12,NNW,344,1.0,10.0,88,0.00,,,0.00,meteohub,2013-01-01 07:46:00,
2013-01-01 01:51:00,24.4,21.2,30.12,NW,325,5.0,10.0,87,0.00,,,0.00,meteohub,2013-01-01 07:51:00,
2013-01-01 01:56:00,24.3,21.2,30.12,NW,318,8.0,10.0,88,0.00,,,0.00,meteohub,2013-01-01 07:56:00,
2013-01-01 02:01:00,24.3,21.2,30.12,North,0,5.0,10.0,88,0.00,,,0.00,meteohub,2013-01-01 08:01:00,
2013-01-01 02:06:00,24.4,21.4,30.12,NW,317,6.0,11.0,88,0.00,,,0.00,meteohub,2013-01-01 08:06:00,
2013-01-01 02:11:00,24.3,21.2,30.13,NNW,329,8.0,11.0,88,0.00,,,0.00,meteohub,2013-01-01 08:11:00,
2013-01-01 02:16:00,24.3,21.2,30.12,NW,304,5.0,11.0,88,0.00,,,0.00,meteohub,2013-01-01 08:16:00,
2013-01-01 02:21:00,24.3,21.2,30.12,NNW,345,1.0,11.0,88,0.00,,,0.00,meteohub,2013-01-01 08:21:00,
2013-01-01 02:27:00,24.3,21.0,30.12,NNW,327,5.0,11.0,87,0.00,,,0.00,meteohub,2013-01-01 08:27:00,
2013-01-01 02:32:00,24.3,21.2,30.12,North,355,2.0,11.0,88,0.00,,,0.00,meteohub,2013-01-01 08:32:00,
2013-01-01 02:37:00,24.3,21.0,30.12,NNW,338,9.0,10.0,87,0.00,,,0.00,meteohub,2013-01-01 08:37:00,
2013-01-01 02:42:00,24.3,21.2,30.12,NW,313,5.0,10.0,88,0.00,,,0.00,meteohub,2013-01-01 08:42:00,
2013-01-01 02:47:00,24.3,21.2,30.12,NW,304,4.0,10.0,88,0.00,,,0.00,meteohub,2013-01-01 08:47:00,
2013-01-01 02:52:00,24.3,21.0,30.13,NNW,342,7.0,10.0,87,0.00,,,0.00,meteohub,2013-01-01 08:52:00,
2013-01-01 02:57:00,24.3,21.0,30.12,NW,323,6.0,10.0,87,0.00,,,0.00,meteohub,2013-01-01 08:57:00,
2013-01-01 03:02:00,24.1,21.0,30.12,NW,325,3.0,10.0,88,0.00,,,0.00,meteohub,2013-01-01 09:02:00,
2013-01-01 03:07:00,24.3,21.2,30.13,NNW,331,4.0,10.0,88,0.00,,,0.00,meteohub,2013-01-01 09:07:00,
2013-01-01 03:12:00,24.3,21.2,30.13,North,351,3.0,10.0,88,0.00,,,0.00,meteohub,2013-01-01 09:12:00,
2013-01-01 03:17:00,24.3,21.2,30.13,NW,321,4.0,9.0,88,0.00,,,0.00,meteohub,2013-01-01 09:17:00,
2013-01-01 03:22:00,24.3,21.2,30.13,NNW,342,5.0,9.0,88,0.00,,,0.00,meteohub,2013-01-01 09:22:00,
2013-01-01 03:27:00,24.3,21.2,30.13,NW,321,7.0,9.0,88,0.00,,,0.00,meteohub,2013-01-01 09:27:00,
2013-01-01 03:32:00,24.3,21.2,30.13,NW,322,5.0,9.0,88,0.00,,,0.00,meteohub,2013-01-01 09:32:00,
2013-01-01 03:37:00,24.3,21.2,30.13,WNW,286,5.0,9.0,88,0.00,,,0.00,meteohub,2013-01-01 09:37:00,
2013-01-01 03:42:00,24.3,21.2,30.13,NW,304,6.0,9.0,88,0.00,,,0.00,meteohub,2013-01-01 09:42:00,
2013-01-01 03:47:00,24.1,21.0,30.13,WNW,302,5.0,12.0,88,0.00,,,0.00,meteohub,2013-01-01 09:47:00,
2013-01-01 03:52:00,24.1,21.0,30.12,NW,309,2.0,12.0,88,0.00,,,0.00,meteohub,2013-01-01 09:52:00,
2013-01-01 03:57:00,24.3,21.2,30.12,NNW,340,6.0,10.0,88,0.00,,,0.00,meteohub,2013-01-01 09:57:00,
2013-01-01 04:02:00,24.1,21.0,30.12,NNW,327,1.0,10.0,88,0.00,,,0.00,meteohub,2013-01-01 10:02:00,
2013-01-01 04:07:00,24.1,21.0,30.12,NW,306,5.0,9.0,88,0.00,,,0.00,meteohub,2013-01-01 10:07:00,
2013-01-01 04:12:00,24.1,21.0,30.12,NNW,333,5.0,9.0,88,0.00,,,0.00,meteohub,2013-01-01 10:12:00,
2013-01-01 04:17:00,24.3,21.2,30.12,NW,320,1.0,8.0,88,0.00,,,0.00,meteohub,2013-01-01 10:17:00,
2013-01-01 04:22:00,24.1,21.0,30.12,NNW,336,6.0,8.0,88,0.00,,,0.00,meteohub,2013-01-01 10:22:00,
2013-01-01 04:27:00,24.1,21.0,30.12,NNW,347,5.0,8.0,88,0.00,,,0.00,meteohub,2013-01-01 10:27:00,
2013-01-01 04:32:00,24.3,21.2,30.12,NNW,341,0.0,9.0,88,0.00,,,0.00,meteohub,2013-01-01 10:32:00,
2013-01-01 04:38:00,24.3,21.2,30.12,NNW,335,4.0,9.0,88,0.00,,,0.00,meteohub,2013-01-01 10:38:00,
2013-01-01 04:43:00,24.3,21.2,30.13,NW,319,2.0,7.0,88,0.00,,,0.00,meteohub,2013-01-01 10:43:00,
2013-01-01 04:48:00,24.3,21.2,30.13,NW,306,5.0,8.0,88,0.00,,,0.00,meteohub,2013-01-01 10:48:00,
2013-01-01 04:53:00,24.3,21.2,30.13,NW,313,5.0,8.0,88,0.00,,,0.00,meteohub,2013-01-01 10:53:00,
2013-01-01 04:58:00,24.3,21.6,30.14,NW,319,2.0,9.0,89,0.00,,,0.00,meteohub,2013-01-01 10:58:00,
2013-01-01 05:03:00,24.3,21.6,30.14,NNW,337,2.0,9.0,89,0.00,,,0.00,meteohub,2013-01-01 11:03:00,
2013-01-01 05:08:00,24.3,21.2,30.15,WNW,297,4.0,9.0,88,0.00,,,0.00,meteohub,2013-01-01 11:08:00,
2013-01-01 05:14:00,24.3,21.2,30.15,NW,309,7.0,7.0,88,0.00,,,0.00,meteohub,2013-01-01 11:14:00,
2013-01-01 05:19:00,24.3,21.2,30.14,NW,321,8.0,8.0,88,0.00,,,0.00,meteohub,2013-01-01 11:19:00,
2013-01-01 05:24:00,24.3,21.2,30.15,NW,320,5.0,9.0,88,0.00,,,0.00,meteohub,2013-01-01 11:24:00,
2013-01-01 05:29:00,24.3,21.0,30.15,NNW,348,2.0,9.0,87,0.00,,,0.00,meteohub,2013-01-01 11:29:00,
2013-01-01 05:34:00,24.3,21.0,30.15,NW,305,6.0,9.0,87,0.00,,,0.00,meteohub,2013-01-01 11:34:00,
2013-01-01 05:39:00,24.3,21.0,30.15,NW,306,4.0,10.0,87,0.00,,,0.00,meteohub,2013-01-01 11:39:00,
2013-01-01 05:44:00,24.3,21.0,30.16,NW,319,4.0,10.0,87,0.00,,,0.00,meteohub,2013-01-01 11:44:00,
2013-01-01 05:50:00,24.3,21.0,30.16,North,-999,-999.0,10.0,87,0.00,,,0.00,meteohub,2013-01-01 11:50:00,
2013-01-01 05:55:00,24.1,20.5,30.16,North,-999,-999.0,8.0,86,0.00,,,0.00,meteohub,2013-01-01 11:55:00,
2013-01-01 06:00:00,24.1,20.5,30.16,NW,309,7.0,7.0,86,0.00,,,0.00,meteohub,2013-01-01 12:00:00,
2013-01-01 06:05:00,23.9,20.1,30.17,NW,315,5.0,9.0,85,0.00,,,0.00,meteohub,2013-01-01 12:05:00,
2013-01-01 06:10:00,23.9,20.1,30.16,WNW,282,6.0,9.0,85,0.00,,,0.00,meteohub,2013-01-01 12:10:00,
2013-01-01 06:15:00,23.5,19.8,30.17,NW,307,9.0,11.0,85,0.00,,,0.00,meteohub,2013-01-01 12:15:00,
2013-01-01 06:20:00,23.5,19.8,30.17,NNW,327,6.0,11.0,85,0.00,,,0.00,meteohub,2013-01-01 12:20:00,
2013-01-01 06:25:00,23.4,19.2,30.17,North,355,4.0,11.0,84,0.00,,,0.00,meteohub,2013-01-01 12:25:00,
2013-01-01 06:31:00,23.4,19.6,30.17,NW,323,6.0,10.0,85,0.00,,,0.00,meteohub,2013-01-01 12:31:00,
2013-01-01 06:36:00,23.4,19.6,30.17,NNW,336,3.0,10.0,85,0.00,,,0.00,meteohub,2013-01-01 12:36:00,
2013-01-01 06:41:00,23.4,19.6,30.17,NNW,335,7.0,10.0,85,0.00,,,0.00,meteohub,2013-01-01 12:41:00,
2013-01-01 06:46:00,23.4,19.6,30.18,North,355,4.0,9.0,85,0.00,,,0.00,meteohub,2013-01-01 12:46:00,
2013-01-01 06:51:00,23.2,19.4,30.18,NNW,327,4.0,9.0,85,0.00,,,0.00,meteohub,2013-01-01 12:51:00,
2013-01-01 06:56:00,23.0,18.9,30.18,NNW,333,8.0,9.0,84,0.00,,,0.00,meteohub,2013-01-01 12:56:00,
2013-01-01 07:01:00,22.8,18.7,30.18,North,351,3.0,10.0,84,0.00,,,0.00,meteohub,2013-01-01 13:01:00,
2013-01-01 07:06:00,22.6,18.5,30.18,NW,325,6.0,11.0,84,0.00,,,0.00,meteohub,2013-01-01 13:06:00,
2013-01-01 07:11:00,22.6,18.5,30.18,NNW,338,4.0,11.0,84,0.00,,,0.00,meteohub,2013-01-01 13:11:00,
2013-01-01 07:16:00,22.5,18.3,30.17,North,355,4.0,11.0,84,0.00,,,0.00,meteohub,2013-01-01 13:16:00,
2013-01-01 07:22:00,22.3,18.1,30.17,North,5,6.0,9.0,84,0.00,,,0.00,meteohub,2013-01-01 13:22:00,
2013-01-01 07:27:00,22.3,18.1,30.17,North,5,3.0,9.0,84,0.00,,,0.00,meteohub,2013-01-01 13:27:00,
2013-01-01 07:32:00,22.3,18.1,30.17,NNW,336,4.0,9.0,84,0.00,,,0.00,meteohub,2013-01-01 13:32:00,
2013-01-01 07:37:00,22.1,18.3,30.17,NNW,333,5.0,8.0,85,0.00,,,0.00,meteohub,2013-01-01 13:37:00,
2013-01-01 07:42:00,22.1,18.3,30.16,NNW,329,1.0,7.0,85,0.00,,,0.00,meteohub,2013-01-01 13:42:00,
2013-01-01 07:47:00,22.1,18.0,30.15,NNW,328,6.0,6.0,84,0.00,,,0.00,meteohub,2013-01-01 13:47:00,
2013-01-01 07:52:00,21.9,17.8,30.13,NNW,342,4.0,8.0,84,0.00,,,0.00,meteohub,2013-01-01 13:52:00,
2013-01-01 07:57:00,21.9,17.8,30.12,NW,319,5.0,12.0,84,0.00,,,0.00,meteohub,2013-01-01 13:57:00,
2013-01-01 08:02:00,21.7,17.6,30.13,NNW,343,7.0,12.0,84,0.00,,,0.00,meteohub,2013-01-01 14:02:00,
2013-01-01 08:07:00,21.7,17.6,30.15,NW,323,5.0,12.0,84,0.00,,,0.00,meteohub,2013-01-01 14:07:00,
2013-01-01 08:12:00,21.6,17.4,30.15,NNE,17,6.0,12.0,84,0.00,,,0.00,meteohub,2013-01-01 14:12:00,
2013-01-01 08:17:00,21.6,17.4,30.16,NNW,332,6.0,12.0,84,0.00,,,0.00,meteohub,2013-01-01 14:17:00,
2013-01-01 08:22:00,21.6,17.2,30.17,North,350,1.0,11.0,83,0.00,,,0.00,meteohub,2013-01-01 14:22:00,
2013-01-01 08:27:00,21.6,17.2,30.17,NNW,331,5.0,10.0,83,0.00,,,0.00,meteohub,2013-01-01 14:27:00,
2013-01-01 08:32:00,21.6,17.2,30.17,NW,322,5.0,9.0,83,0.00,,,0.00,meteohub,2013-01-01 14:32:00,
2013-01-01 08:37:00,21.4,17.1,30.18,NW,325,3.0,7.0,83,0.00,,,0.00,meteohub,2013-01-01 14:37:00,
2013-01-01 08:42:00,21.6,16.9,30.18,NNW,331,3.0,8.0,82,0.00,,,0.00,meteohub,2013-01-01 14:42:00,
2013-01-01 08:47:00,21.6,16.9,30.19,NW,317,4.0,8.0,82,0.00,,,0.00,meteohub,2013-01-01 14:47:00,
2013-01-01 08:52:00,21.7,17.1,30.19,NW,319,4.0,8.0,82,0.00,,,0.00,meteohub,2013-01-01 14:52:00,
2013-01-01 08:57:00,21.9,17.2,30.19,NW,317,7.0,10.0,82,0.00,,,0.00,meteohub,2013-01-01 14:57:00,
2013-01-01 09:02:00,21.9,17.1,30.21,NW,313,4.0,10.0,81,0.00,,,0.00,meteohub,2013-01-01 15:02:00,
2013-01-01 09:07:00,22.1,17.2,30.21,NW,317,5.0,9.0,81,0.00,,,0.00,meteohub,2013-01-01 15:07:00,
2013-01-01 09:12:00,22.1,17.2,30.22,NW,326,4.0,8.0,81,0.00,,,0.00,meteohub,2013-01-01 15:12:00,
2013-01-01 09:17:00,22.1,17.2,30.22,NNW,327,1.0,8.0,81,0.00,,,0.00,meteohub,2013-01-01 15:17:00,
2013-01-01 09:22:00,22.1,16.9,30.22,NW,313,3.0,8.0,80,0.00,,,0.00,meteohub,2013-01-01 15:22:00,
2013-01-01 09:27:00,22.3,17.1,30.21,NW,319,4.0,8.0,80,0.00,,,0.00,meteohub,2013-01-01 15:27:00,
2013-01-01 09:32:00,22.5,17.2,30.21,NW,313,5.0,6.0,80,0.00,,,0.00,meteohub,2013-01-01 15:32:00,
2013-01-01 09:37:00,22.5,17.6,30.20,NW,320,7.0,9.0,81,0.00,,,0.00,meteohub,2013-01-01 15:37:00,
2013-01-01 09:43:00,22.5,17.2,30.21,NNW,332,2.0,9.0,80,0.00,,,0.00,meteohub,2013-01-01 15:43:00,
2013-01-01 09:48:00,22.5,17.2,30.21,NW,313,3.0,9.0,80,0.00,,,0.00,meteohub,2013-01-01 15:48:00,
2013-01-01 09:53:00,22.3,16.7,30.21,NW,316,3.0,8.0,79,0.00,,,0.00,meteohub,2013-01-01 15:53:00,
2013-01-01 09:58:00,22.5,17.2,30.22,WNW,299,5.0,9.0,80,0.00,,,0.00,meteohub,2013-01-01 15:58:00,
2013-01-01 10:03:00,22.3,17.1,30.22,WNW,303,4.0,10.0,80,0.00,,,0.00,meteohub,2013-01-01 16:03:00,
2013-01-01 10:08:00,22.5,17.2,30.22,WNW,297,6.0,10.0,80,0.00,,,0.00,meteohub,2013-01-01 16:08:00,
2013-01-01 10:13:00,22.5,17.6,30.23,NW,313,5.0,10.0,81,0.00,,,0.00,meteohub,2013-01-01 16:13:00,
2013-01-01 10:18:00,22.6,17.4,30.22,NW,304,4.0,8.0,80,0.00,,,0.00,meteohub,2013-01-01 16:18:00,
2013-01-01 10:23:00,22.6,17.4,30.22,NW,323,5.0,9.0,80,0.00,,,0.00,meteohub,2013-01-01 16:23:00,
2013-01-01 10:28:00,22.5,17.2,30.23,NW,313,3.0,9.0,80,0.00,,,0.00,meteohub,2013-01-01 16:28:00,
2013-01-01 10:33:00,22.6,17.4,30.23,North,355,6.0,9.0,80,0.00,,,0.00,meteohub,2013-01-01 16:33:00,
2013-01-01 10:38:00,22.6,17.1,30.23,NW,315,5.0,9.0,79,0.00,,,0.00,meteohub,2013-01-01 16:38:00,
2013-01-01 10:43:00,22.8,17.6,30.23,NNW,328,2.0,9.0,80,0.00,,,0.00,meteohub,2013-01-01 16:43:00,
2013-01-01 10:49:00,22.8,17.6,30.23,NW,319,5.0,9.0,80,0.00,,,0.00,meteohub,2013-01-01 16:49:00,
2013-01-01 10:54:00,22.8,17.6,30.22,NNW,344,2.0,8.0,80,0.00,,,0.00,meteohub,2013-01-01 16:54:00,
2013-01-01 10:59:00,22.8,17.6,30.22,NW,307,7.0,10.0,80,0.00,,,0.00,meteohub,2013-01-01 16:59:00,
2013-01-01 11:04:00,22.6,17.4,30.22,WNW,284,4.0,10.0,80,0.00,,,0.00,meteohub,2013-01-01 17:04:00,
2013-01-01 11:09:00,22.6,17.4,30.21,NW,313,6.0,10.0,80,0.00,,,0.00,meteohub,2013-01-01 17:09:00,
2013-01-01 11:14:00,22.6,17.4,30.19,NW,307,7.0,10.0,80,0.00,,,0.00,meteohub,2013-01-01 17:14:00,
2013-01-01 11:19:00,22.6,17.8,30.19,NNW,329,4.0,11.0,81,0.00,,,0.00,meteohub,2013-01-01 17:19:00,
2013-01-01 11:24:00,22.6,17.4,30.19,NNW,337,3.0,11.0,80,0.00,,,0.00,meteohub,2013-01-01 17:24:00,
2013-01-01 11:29:00,22.5,17.2,30.20,NW,317,6.0,11.0,80,0.00,,,0.00,meteohub,2013-01-01 17:29:00,
2013-01-01 11:34:00,22.5,17.6,30.19,NNW,342,2.0,11.0,81,0.00,,,0.00,meteohub,2013-01-01 17:34:00,
2013-01-01 11:39:00,22.5,17.2,30.18,NNW,330,7.0,9.0,80,0.00,,,0.00,meteohub,2013-01-01 17:39:00,
2013-01-01 11:44:00,22.5,17.6,30.17,North,355,6.0,9.0,81,0.00,,,0.00,meteohub,2013-01-01 17:44:00,
2013-01-01 11:49:00,22.6,17.8,30.17,NNW,338,8.0,9.0,81,0.00,,,0.00,meteohub,2013-01-01 17:49:00,
2013-01-01 11:54:00,22.8,17.6,30.17,NW,309,9.0,12.0,80,0.00,,,0.00,meteohub,2013-01-01 17:54:00,
2013-01-01 11:59:00,23.4,18.1,30.18,NNW,330,5.0,12.0,80,0.00,,,0.00,meteohub,2013-01-01 17:59:00,
2013-01-01 12:04:00,23.5,18.0,30.19,NW,308,8.0,12.0,79,0.00,,,0.00,meteohub,2013-01-01 18:04:00,
2013-01-01 12:10:00,23.9,18.7,30.18,NW,305,8.0,11.0,80,0.00,,,0.00,meteohub,2013-01-01 18:10:00,
2013-01-01 12:15:00,24.3,19.0,30.18,NW,316,6.0,11.0,80,0.00,,,0.00,meteohub,2013-01-01 18:15:00,
2013-01-01 12:20:00,24.6,19.4,30.18,North,11,7.0,10.0,80,0.00,,,0.00,meteohub,2013-01-01 18:20:00,
2013-01-01 12:25:00,24.3,18.3,30.19,NW,317,6.0,12.0,78,0.00,,,0.00,meteohub,2013-01-01 18:25:00,
2013-01-01 12:30:00,24.3,19.0,30.19,WNW,295,4.0,13.0,80,0.00,,,0.00,meteohub,2013-01-01 18:30:00,
2013-01-01 12:35:00,24.3,18.7,30.19,NNW,328,7.0,13.0,79,0.00,,,0.00,meteohub,2013-01-01 18:35:00,
2013-01-01 12:40:00,24.1,18.5,30.20,NW,310,5.0,11.0,79,0.00,,,0.00,meteohub,2013-01-01 18:40:00,
2013-01-01 12:45:00,24.1,18.5,30.19,North,350,8.0,11.0,79,0.00,,,0.00,meteohub,2013-01-01 18:45:00,
2013-01-01 12:50:00,24.3,18.7,30.18,North,350,5.0,10.0,79,0.00,,,0.00,meteohub,2013-01-01 18:50:00,
2013-01-01 12:55:00,24.1,18.5,30.18,NW,325,7.0,11.0,79,0.00,,,0.00,meteohub,2013-01-01 18:55:00,
2013-01-01 13:00:00,24.1,18.5,30.17,NW,308,6.0,11.0,79,0.00,,,0.00,meteohub,2013-01-01 19:00:00,
2013-01-01 13:05:00,24.1,18.1,30.17,NNW,342,9.0,11.0,78,0.00,,,0.00,meteohub,2013-01-01 19:05:00,
2013-01-01 13:10:00,24.1,18.1,30.17,North,350,8.0,10.0,78,0.00,,,0.00,meteohub,2013-01-01 19:10:00,
2013-01-01 13:15:00,24.1,18.1,30.18,NNW,341,6.0,10.0,78,0.00,,,0.00,meteohub,2013-01-01 19:15:00,
2013-01-01 13:21:00,24.3,18.7,30.18,NNW,334,7.0,10.0,79,0.00,,,0.00,meteohub,2013-01-01 19:21:00,
2013-01-01 13:26:00,24.4,18.5,30.19,NW,307,5.0,10.0,78,0.00,,,0.00,meteohub,2013-01-01 19:26:00,
2013-01-01 13:31:00,24.6,18.5,30.18,NW,324,0.0,8.0,77,0.00,,,0.00,meteohub,2013-01-01 19:31:00,
2013-01-01 13:36:00,24.6,18.5,30.18,WNW,300,6.0,8.0,77,0.00,,,0.00,meteohub,2013-01-01 19:36:00,
2013-01-01 13:41:00,24.6,18.7,30.19,NNW,336,4.0,8.0,78,0.00,,,0.00,meteohub,2013-01-01 19:41:00,
2013-01-01 13:46:00,25.2,19.2,30.19,WNW,290,6.0,8.0,78,0.00,,,0.00,meteohub,2013-01-01 19:46:00,
2013-01-01 13:51:00,24.8,18.7,30.19,NW,308,5.0,8.0,77,0.00,,,0.00,meteohub,2013-01-01 19:51:00,
2013-01-01 13:56:00,24.6,18.7,30.18,North,0,6.0,10.0,78,0.00,,,0.00,meteohub,2013-01-01 19:56:00,
2013-01-01 14:01:00,25.0,19.0,30.17,NW,315,4.0,10.0,78,0.00,,,0.00,meteohub,2013-01-01 20:01:00,
2013-01-01 14:06:00,25.0,18.9,30.17,NNW,338,4.0,9.0,77,0.00,,,0.00,meteohub,2013-01-01 20:06:00,
2013-01-01 14:11:00,25.0,18.9,30.17,NNW,339,6.0,9.0,77,0.00,,,0.00,meteohub,2013-01-01 20:11:00,
2013-01-01 14:16:00,24.6,18.1,30.17,North,5,6.0,9.0,76,0.00,,,0.00,meteohub,2013-01-01 20:16:00,
2013-01-01 14:21:00,24.4,18.3,30.17,North,355,8.0,10.0,77,0.00,,,0.00,meteohub,2013-01-01 20:21:00,
2013-01-01 14:26:00,24.6,18.7,30.17,NW,313,5.0,10.0,78,0.00,,,0.00,meteohub,2013-01-01 20:26:00,
2013-01-01 14:32:00,24.4,18.3,30.17,NNW,344,5.0,10.0,77,0.00,,,0.00,meteohub,2013-01-01 20:32:00,
2013-01-01 14:37:00,24.4,18.3,30.17,WNW,300,7.0,9.0,77,0.00,,,0.00,meteohub,2013-01-01 20:37:00,
2013-01-01 14:42:00,24.3,18.1,30.17,NW,315,7.0,10.0,77,0.00,,,0.00,meteohub,2013-01-01 20:42:00,
2013-01-01 14:47:00,24.3,18.1,30.17,NNW,333,2.0,10.0,77,0.00,,,0.00,meteohub,2013-01-01 20:47:00,
2013-01-01 14:52:00,24.4,18.3,30.17,WNW,302,7.0,10.0,77,0.00,,,0.00,meteohub,2013-01-01 20:52:00,
2013-01-01 14:57:00,24.4,18.3,30.18,NNW,336,5.0,9.0,77,0.00,,,0.00,meteohub,2013-01-01 20:57:00,
2013-01-01 15:02:00,24.4,18.3,30.18,NW,313,8.0,9.0,77,0.00,,,0.00,meteohub,2013-01-01 21:02:00,
2013-01-01 15:07:00,24.3,18.1,30.18,WNW,296,1.0,9.0,77,0.00,,,0.00,meteohub,2013-01-01 21:07:00,
2013-01-01 15:12:00,24.4,18.3,30.18,NNW,329,5.0,9.0,77,0.00,,,0.00,meteohub,2013-01-01 21:12:00,
2013-01-01 15:17:00,24.3,18.1,30.18,WNW,302,9.0,9.0,77,0.00,,,0.00,meteohub,2013-01-01 21:17:00,
2013-01-01 15:22:00,23.9,17.8,30.18,NW,325,3.0,11.0,77,0.00,,,0.00,meteohub,2013-01-01 21:22:00,
2013-01-01 15:27:00,23.9,18.0,30.18,NNW,338,10.0,11.0,78,0.00,,,0.00,meteohub,2013-01-01 21:27:00,
2013-01-01 15:32:00,23.5,17.4,30.18,North,355,9.0,11.0,77,0.00,,,0.00,meteohub,2013-01-01 21:32:00,
2013-01-01 15:37:00,23.4,17.6,30.18,WNW,300,5.0,11.0,78,0.00,,,0.00,meteohub,2013-01-01 21:37:00,
2013-01-01 15:42:00,23.2,17.4,30.18,NNW,348,3.0,11.0,78,0.00,,,0.00,meteohub,2013-01-01 21:42:00,
2013-01-01 15:47:00,23.0,17.2,30.19,NW,314,1.0,9.0,78,0.00,,,0.00,meteohub,2013-01-01 21:47:00,
2013-01-01 15:52:00,22.6,16.9,30.18,NW,306,7.0,9.0,78,0.00,,,0.00,meteohub,2013-01-01 21:52:00,
2013-01-01 15:57:00,22.3,16.5,30.19,NW,304,9.0,10.0,78,0.00,,,0.00,meteohub,2013-01-01 21:57:00,
2013-01-01 16:02:00,22.1,16.3,30.19,NNW,338,6.0,11.0,78,0.00,,,0.00,meteohub,2013-01-01 22:02:00,
2013-01-01 16:07:00,21.9,16.2,30.19,NW,315,5.0,11.0,78,0.00,,,0.00,meteohub,2013-01-01 22:07:00,
2013-01-01 16:12:00,21.6,15.8,30.19,WNW,302,1.0,11.0,78,0.00,,,0.00,meteohub,2013-01-01 22:12:00,
2013-01-01 16:17:00,21.6,15.8,30.19,NNW,329,5.0,10.0,78,0.00,,,0.00,meteohub,2013-01-01 22:17:00,
2013-01-01 16:22:00,21.4,15.6,30.19,NW,323,2.0,9.0,78,0.00,,,0.00,meteohub,2013-01-01 22:22:00,
2013-01-01 16:27:00,21.4,15.6,30.19,WNW,296,3.0,9.0,78,0.00,,,0.00,meteohub,2013-01-01 22:27:00,
2013-01-01 16:32:00,21.0,15.3,30.19,WNW,302,6.0,8.0,78,0.00,,,0.00,meteohub,2013-01-01 22:32:00,
2013-01-01 16:37:00,21.0,15.3,30.19,WNW,282,4.0,8.0,78,0.00,,,0.00,meteohub,2013-01-01 22:37:00,
2013-01-01 16:42:00,20.8,14.7,30.19,WNW,302,6.0,8.0,77,0.00,,,0.00,meteohub,2013-01-01 22:42:00,
2013-01-01 16:47:00,20.8,14.7,30.19,NW,304,5.0,8.0,77,0.00,,,0.00,meteohub,2013-01-01 22:47:00,
2013-01-01 16:52:00,20.7,14.5,30.19,NW,320,2.0,8.0,77,0.00,,,0.00,meteohub,2013-01-01 22:52:00,
2013-01-01 16:57:00,20.7,14.5,30.19,NW,304,1.0,8.0,77,0.00,,,0.00,meteohub,2013-01-01 22:57:00,
2013-01-01 17:02:00,20.7,14.5,30.20,NW,305,5.0,8.0,77,0.00,,,0.00,meteohub,2013-01-01 23:02:00,
2013-01-01 17:07:00,20.5,14.4,30.19,WNW,302,4.0,7.0,77,0.00,,,0.00,meteohub,2013-01-01 23:07:00,
2013-01-01 17:12:00,20.5,14.4,30.19,WNW,294,4.0,6.0,77,0.00,,,0.00,meteohub,2013-01-01 23:12:00,
2013-01-01 17:17:00,20.5,14.4,30.20,WNW,296,2.0,6.0,77,0.00,,,0.00,meteohub,2013-01-01 23:17:00,
2013-01-01 17:22:00,20.5,14.4,30.21,WNW,288,1.0,6.0,77,0.00,,,0.00,meteohub,2013-01-01 23:22:00,
2013-01-01 17:27:00,20.3,14.2,30.20,WNW,294,2.0,5.0,77,0.00,,,0.00,meteohub,2013-01-01 23:27:00,
2013-01-01 17:32:00,20.3,14.5,30.20,WNW,295,2.0,5.0,78,0.00,,,0.00,meteohub,2013-01-01 23:32:00,
2013-01-01 17:37:00,20.1,14.4,30.21,WNW,289,0.0,5.0,78,0.00,,,0.00,meteohub,2013-01-01 23:37:00,
2013-01-01 17:42:00,19.9,14.2,30.21,West,274,0.0,5.0,78,0.00,,,0.00,meteohub,2013-01-01 23:42:00,
2013-01-01 17:47:00,19.9,14.5,30.21,WNW,282,1.0,4.0,79,0.00,,,0.00,meteohub,2013-01-01 23:47:00,
2013-01-01 17:52:00,19.8,14.4,30.21,WNW,284,1.0,4.0,79,0.00,,,0.00,meteohub,2013-01-01 23:52:00,
2013-01-01 17:57:00,19.8,14.4,30.21,WNW,294,1.0,4.0,79,0.00,,,0.00,meteohub,2013-01-01 23:57:00,
2013-01-01 18:02:00,19.8,14.4,30.22,WNW,287,2.0,4.0,79,0.00,,,0.00,meteohub,2013-01-02 00:02:00,
2013-01-01 18:07:00,19.8,14.4,30.23,West,278,4.0,5.0,79,0.00,,,0.00,meteohub,2013-01-02 00:07:00,
2013-01-01 18:12:00,19.6,13.8,30.23,WNW,296,1.0,5.0,78,0.00,,,0.00,meteohub,2013-01-02 00:12:00,
2013-01-01 18:17:00,19.6,13.8,30.22,WNW,299,4.0,5.0,78,0.00,,,0.00,meteohub,2013-01-02 00:17:00,
2013-01-01 18:22:00,19.6,13.8,30.23,WNW,300,2.0,6.0,78,0.00,,,0.00,meteohub,2013-01-02 00:22:00,
2013-01-01 18:27:00,19.6,13.8,30.23,West,272,3.0,7.0,78,0.00,,,0.00,meteohub,2013-01-02 00:27:00,
2013-01-01 18:32:00,19.6,13.8,30.23,WNW,300,5.0,7.0,78,0.00,,,0.00,meteohub,2013-01-02 00:32:00,
2013-01-01 18:37:00,19.4,13.6,30.22,WNW,289,2.0,7.0,78,0.00,,,0.00,meteohub,2013-01-02 00:37:00,
2013-01-01 18:42:00,19.4,13.5,30.22,NW,309,4.0,7.0,77,0.00,,,0.00,meteohub,2013-01-02 00:42:00,
2013-01-01 18:47:00,19.2,13.3,30.23,WNW,298,2.0,7.0,77,0.00,,,0.00,meteohub,2013-01-02 00:47:00,
2013-01-01 18:52:00,19.2,13.3,30.23,WNW,284,4.0,6.0,77,0.00,,,0.00,meteohub,2013-01-02 00:52:00,
2013-01-01 18:57:00,19.2,12.9,30.22,WNW,300,5.0,7.0,76,0.00,,,0.00,meteohub,2013-01-02 00:57:00,
2013-01-01 19:02:00,19.2,12.6,30.22,WNW,300,5.0,7.0,75,0.00,,,0.00,meteohub,2013-01-02 01:02:00,
2013-01-01 19:07:00,19.0,12.4,30.23,NW,306,0.0,8.0,75,0.00,,,0.00,meteohub,2013-01-02 01:07:00,
2013-01-01 19:12:00,19.0,12.4,30.23,WNW,291,5.0,8.0,75,0.00,,,0.00,meteohub,2013-01-02 01:12:00,
2013-01-01 19:17:00,19.0,12.4,30.22,WNW,300,3.0,8.0,75,0.00,,,0.00,meteohub,2013-01-02 01:17:00,
2013-01-01 19:22:00,19.0,12.4,30.22,WNW,292,4.0,8.0,75,0.00,,,0.00,meteohub,2013-01-02 01:22:00,
2013-01-01 19:27:00,19.0,12.2,30.22,WNW,292,5.0,8.0,74,0.00,,,0.00,meteohub,2013-01-02 01:27:00,
2013-01-01 19:32:00,19.0,12.2,30.23,West,275,3.0,8.0,74,0.00,,,0.00,meteohub,2013-01-02 01:32:00,
2013-01-01 19:38:00,19.0,12.2,30.22,WNW,286,4.0,8.0,74,0.00,,,0.00,meteohub,2013-01-02 01:38:00,
2013-01-01 19:43:00,19.0,11.8,30.22,WNW,294,4.0,8.0,73,0.00,,,0.00,meteohub,2013-01-02 01:43:00,
2013-01-01 19:48:00,19.0,11.8,30.22,WNW,300,3.0,8.0,73,0.00,,,0.00,meteohub,2013-01-02 01:48:00,
2013-01-01 19:53:00,18.9,11.7,30.22,West,277,1.0,8.0,73,0.00,,,0.00,meteohub,2013-01-02 01:53:00,
2013-01-01 19:58:00,18.9,12.0,30.22,West,279,2.0,8.0,74,0.00,,,0.00,meteohub,2013-01-02 01:58:00,
2013-01-01 20:03:00,18.9,12.0,30.22,SSW,207,0.0,6.0,74,0.00,,,0.00,meteohub,2013-01-02 02:03:00,
2013-01-01 20:08:00,18.9,12.0,30.22,WNW,298,1.0,6.0,74,0.00,,,0.00,meteohub,2013-01-02 02:08:00,
2013-01-01 20:13:00,18.7,11.8,30.22,NW,311,0.0,6.0,74,0.00,,,0.00,meteohub,2013-01-02 02:13:00,
2013-01-01 20:18:00,18.7,11.8,30.22,WNW,297,3.0,6.0,74,0.00,,,0.00,meteohub,2013-01-02 02:18:00,
2013-01-01 20:23:00,18.5,11.7,30.22,WSW,240,0.0,6.0,74,0.00,,,0.00,meteohub,2013-01-02 02:23:00,
2013-01-01 20:28:00,18.3,11.5,30.22,WNW,286,1.0,5.0,74,0.00,,,0.00,meteohub,2013-01-02 02:28:00,
2013-01-01 20:33:00,18.1,11.3,30.22,WNW,284,0.0,5.0,74,0.00,,,0.00,meteohub,2013-01-02 02:33:00,
2013-01-01 20:38:00,18.1,11.5,30.22,WNW,288,4.0,5.0,75,0.00,,,0.00,meteohub,2013-01-02 02:38:00,
2013-01-01 20:44:00,18.0,11.3,30.23,WNW,284,1.0,5.0,75,0.00,,,0.00,meteohub,2013-01-02 02:44:00,
2013-01-01 20:49:00,18.0,11.3,30.23,WNW,290,1.0,5.0,75,0.00,,,0.00,meteohub,2013-01-02 02:49:00,
2013-01-01 20:54:00,17.8,11.1,30.23,WNW,296,1.0,5.0,75,0.00,,,0.00,meteohub,2013-01-02 02:54:00,
2013-01-01 20:59:00,17.8,11.1,30.23,WNW,293,0.0,5.0,75,0.00,,,0.00,meteohub,2013-01-02 02:59:00,
2013-01-01 21:04:00,17.6,11.1,30.23,WNW,286,0.0,5.0,75,0.00,,,0.00,meteohub,2013-01-02 03:04:00,
2013-01-01 21:09:00,17.4,10.9,30.22,WNW,286,4.0,4.0,75,0.00,,,0.00,meteohub,2013-01-02 03:09:00,
2013-01-01 21:14:00,17.4,10.9,30.24,WNW,285,2.0,5.0,75,0.00,,,0.00,meteohub,2013-01-02 03:14:00,
2013-01-01 21:19:00,17.4,10.6,30.23,WNW,292,1.0,5.0,74,0.00,,,0.00,meteohub,2013-01-02 03:19:00,
2013-01-01 21:24:00,17.4,10.6,30.22,NW,317,4.0,5.0,74,0.00,,,0.00,meteohub,2013-01-02 03:24:00,
2013-01-01 21:29:00,17.4,10.6,30.23,NW,304,2.0,6.0,74,0.00,,,0.00,meteohub,2013-01-02 03:29:00,
2013-01-01 21:34:00,17.8,10.6,30.24,North,-999,-999.0,6.0,73,0.00,,,0.00,meteohub,2013-01-02 03:34:00,
2013-01-01 21:39:00,17.8,10.6,30.24,NNW,332,8.0,8.0,73,0.00,,,0.00,meteohub,2013-01-02 03:39:00,
2013-01-01 21:44:00,17.8,10.2,30.24,NW,313,4.0,9.0,72,0.00,,,0.00,meteohub,2013-01-02 03:44:00,
2013-01-01 21:49:00,17.6,10.4,30.23,NW,313,4.0,9.0,73,0.00,,,0.00,meteohub,2013-01-02 03:49:00,
2013-01-01 21:55:00,17.4,10.2,30.23,WNW,302,5.0,9.0,73,0.00,,,0.00,meteohub,2013-01-02 03:55:00,
2013-01-01 22:00:00,17.2,10.0,30.24,WNW,302,2.0,8.0,73,0.00,,,0.00,meteohub,2013-01-02 04:00:00,
2013-01-01 22:05:00,17.1,10.2,30.25,WNW,297,3.0,7.0,74,0.00,,,0.00,meteohub,2013-01-02 04:05:00,
2013-01-01 22:10:00,17.1,10.2,30.24,WNW,288,6.0,6.0,74,0.00,,,0.00,meteohub,2013-01-02 04:10:00,
2013-01-01 22:15:00,16.9,10.0,30.23,NW,309,4.0,6.0,74,0.00,,,0.00,meteohub,2013-01-02 04:15:00,
2013-01-01 22:20:00,16.7,9.9,30.23,NW,314,3.0,6.0,74,0.00,,,0.00,meteohub,2013-01-02 04:20:00,
2013-01-01 22:25:00,16.5,10.0,30.23,NW,313,0.0,6.0,75,0.00,,,0.00,meteohub,2013-01-02 04:25:00,
2013-01-01 22:30:00,16.3,9.9,30.23,NW,305,3.0,6.0,75,0.00,,,0.00,meteohub,2013-01-02 04:30:00,
2013-01-01 22:35:00,16.3,9.9,30.23,NW,317,4.0,6.0,75,0.00,,,0.00,meteohub,2013-01-02 04:35:00,
2013-01-01 22:40:00,16.2,9.7,30.24,NW,304,4.0,6.0,75,0.00,,,0.00,meteohub,2013-01-02 04:40:00,
2013-01-01 22:45:00,16.2,9.7,30.25,NW,313,2.0,8.0,75,0.00,,,0.00,meteohub,2013-01-02 04:45:00,
2013-01-01 22:50:00,16.2,9.9,30.25,WNW,297,3.0,8.0,76,0.00,,,0.00,meteohub,2013-01-02 04:50:00,
2013-01-01 22:55:00,16.0,9.7,30.25,WNW,288,4.0,8.0,76,0.00,,,0.00,meteohub,2013-01-02 04:55:00,
2013-01-01 23:00:00,16.0,9.7,30.25,WNW,282,4.0,7.0,76,0.00,,,0.00,meteohub,2013-01-02 05:00:00,
2013-01-01 23:01:00,15.8,9.5,30.25,NW,314,3.0,7.0,76,0.00,,,0.00,meteohub,2013-01-02 05:01:00,
2013-01-01 23:02:00,15.8,9.5,30.25,WNW,282,4.0,7.0,76,0.00,,,0.00,meteohub,2013-01-02 05:02:00,
2013-01-01 23:03:00,15.6,9.5,30.25,NW,317,4.0,7.0,76,0.00,,,0.00,meteohub,2013-01-02 05:03:00,
2013-01-01 23:08:00,15.6,9.5,30.24,WNW,300,5.0,8.0,76,0.00,,,0.00,meteohub,2013-01-02 05:08:00,
2013-01-01 23:13:00,15.4,9.3,30.24,NW,312,4.0,8.0,76,0.00,,,0.00,meteohub,2013-01-02 05:13:00,
2013-01-01 23:18:00,15.4,9.3,30.24,WNW,302,2.0,8.0,76,0.00,,,0.00,meteohub,2013-01-02 05:18:00,
2013-01-01 23:23:00,15.3,9.1,30.24,NW,309,2.0,7.0,76,0.00,,,0.00,meteohub,2013-01-02 05:23:00,
2013-01-01 23:28:00,15.3,9.3,30.23,NW,313,4.0,7.0,77,0.00,,,0.00,meteohub,2013-01-02 05:28:00,
2013-01-01 23:33:00,15.1,9.1,30.24,NW,324,3.0,7.0,77,0.00,,,0.00,meteohub,2013-01-02 05:33:00,
2013-01-01 23:39:00,15.1,9.1,30.24,NW,318,4.0,7.0,77,0.00,,,0.00,meteohub,2013-01-02 05:39:00,
2013-01-01 23:44:00,14.9,9.0,30.24,North,-999,-999.0,7.0,77,0.00,,,0.00,meteohub,2013-01-02 05:44:00,
2013-01-01 23:49:00,14.7,8.8,30.24,WNW,299,3.0,6.0,77,0.00,,,0.00,meteohub,2013-01-02 05:49:00,
2013-01-01 23:54:00,14.7,8.8,30.24,WNW,303,2.0,5.0,77,0.00,,,0.00,meteohub,2013-01-02 05:54:00,
2013-01-01 23:59:00,14.5,8.6,30.24,NW,311,1.0,7.0,77,0.00,,,0.00,meteohub,2013-01-02 05:59:00,